Latest Coastal Weather Observations for Dunalley

IDT60701

Issued at 6:22 pm EDT Friday 3 December 2021 (issued every 10 minutes, with the page automatically refreshed every 10 minutes)

About coastal observations | Map of coastal stations | Coastal observations for TAS | Marine services | Other Formats
Station Details ID: 094254 Name: DUNALLEY (STROUD POINT) Lat: -42.90 Lon: 147.79 Height: 12.43 m
Data from the previous 72 hours. | See also: Recent months at Dunalley
Date/Time
EDT
Wind Sea
Height
m
Swell Vis
km
Cloud Weather Temp
°C
Press
MSL
hPa
Rain since
9am
mm
Dir  Spd
kts
Gust
kts
Height
m
Period
s
Dir
03/06:00pm NE 18 25 - - - - - - - 14.8 1013.3 0.0
03/05:30pm NE 21 27 - - - - - - - 14.3 1013.6 0.0
03/05:00pm ENE 18 24 - - - - - - - 15.1 1013.8 0.0
03/04:30pm NE 17 23 - - - - - - - 15.5 1014.2 0.0
03/04:00pm NE 16 21 - - - - - - - 15.3 1014.5 0.0
03/03:30pm ENE 15 21 - - - - - - - 16.9 1014.9 0.0
03/03:00pm NE 16 21 - - - - - - - 17.4 1015.1 0.0
03/02:30pm NE 14 20 - - - - - - - 15.8 1015.3 0.0
03/02:11pm NE 10 19 - - - - - - - 16.8 1015.4 0.0
03/02:00pm ESE 4 5 - - - - - - - 16.9 1015.5 0.0
03/01:30pm S 7 9 - - - - - - - 17.8 1015.5 0.0
03/01:00pm SSE 5 8 - - - - - - - 17.4 1016.0 0.0
03/12:30pm S 6 8 - - - - - - - 17.6 1016.1 0.0
03/12:00pm SW 6 8 - - - - - - - 17.1 1016.3 0.0
03/11:30am SW 10 13 - - - - - - - 17.1 1016.4 0.0
03/11:00am SW 10 12 - - - - - - - 16.7 1016.5 0.0
03/10:30am SW 12 15 - - - - - - - 16.3 1016.7 0.0
03/10:00am SW 12 14 - - - - - - - 16.1 1016.6 0.0
03/09:30am WSW 15 19 - - - - - - - 15.4 1016.6 0.0
03/09:00am WSW 18 21 - - - - - - - 15.2 1016.4 5.4
03/08:30am WSW 16 19 - - - - - - - 14.7 1016.1 5.4
03/08:00am WSW 18 21 - - - - - - - 13.9 1015.7 5.4
03/07:30am WSW 15 19 - - - - - - - 14.0 1015.4 5.4
03/07:00am SW 17 21 - - - - - - - 13.4 1014.8 5.4
03/06:30am SW 14 17 - - - - - - - 13.4 1014.5 5.4
03/06:00am SW 16 18 - - - - - - - 13.3 1014.2 5.4
03/05:30am WSW 19 22 - - - - - - - 14.0 1013.3 5.4
03/05:00am WSW 16 18 - - - - - - - 13.8 1013.0 5.4
03/04:30am W 15 19 - - - - - - - 13.6 1012.5 5.4
03/04:00am WNW 11 15 - - - - - - - 11.8 1012.5 5.4
03/03:30am W 8 11 - - - - - - - 11.9 1012.9 5.4
03/03:00am WNW 8 11 - - - - - - - 12.2 1012.7 5.4
03/02:30am S 6 8 - - - - - - - 13.4 1012.7 5.4
03/02:00am S 4 5 - - - - - - - 13.4 1013.0 5.4
03/01:30am S 3 3 - - - - - - - 13.2 1013.1 5.4
03/01:00am S 1 3 - - - - - - - 13.2 1012.9 5.4
03/12:30am S 1 2 - - - - - - - 13.2 1012.7 5.2
03/12:00am S 3 5 - - - - - - - 13.2 1012.7 5.2
 
Date/Time
EDT
Wind Sea
Height
m
Swell Vis
km
Cloud Weather Temp
°C
Press
MSL
hPa
Rain since
9am
mm
Dir  Spd
kts
Gust
kts
Height
m
Period
s
Dir
02/11:30pm SSE 5 7 - - - - - - - 13.5 1012.5 5.2
02/11:00pm S 7 9 - - - - - - - 13.3 1012.1 5.2
02/10:30pm S 9 12 - - - - - - - 13.4 1012.0 5.2
02/10:00pm SE 3 5 - - - - - - - 13.7 1011.5 5.0
02/09:30pm S 13 17 - - - - - - - 14.0 1010.1 5.0
02/09:00pm SSW 17 20 - - - - - - - 14.1 1010.3 5.0
02/08:30pm S 14 17 - - - - - - - 14.4 1009.2 5.0
02/08:00pm S 16 20 - - - - - - - 14.8 1009.4 5.0
02/07:43pm S 9 20 - - - - - - - 15.1 1009.0 5.0
02/07:30pm SSE 5 9 - - - - - - - 15.4 1008.9 5.0
02/07:00pm S 12 17 - - - - - - - 15.5 1008.8 5.0
02/06:30pm S 17 23 - - - - - - - 15.3 1009.1 4.6
02/06:25pm SW 20 28 - - - - - - - 15.7 1009.3 4.6
02/06:08pm SSW 16 26 - - - - - - - 16.7 1009.4 4.6
02/06:00pm S 13 18 - - - - - - - 16.8 1007.4 4.6
02/05:30pm S 11 15 - - - - - - - 17.5 1006.5 4.6
02/05:00pm ENE 4 7 - - - - - - - 19.4 1006.9 4.6
02/04:54pm E 6 11 - - - - - - - 18.6 1006.6 4.6
02/04:30pm WSW 18 23 - - - - - - - 18.0 1008.6 0.8
02/04:13pm ENE 11 22 - - - - - - - 19.9 1008.5 0.0
02/04:00pm E 7 15 - - - - - - - 21.2 1007.6 0.0
02/03:30pm NE 14 17 - - - - - - - 21.5 1007.4 0.0
02/03:00pm NE 18 21 - - - - - - - 22.9 1007.7 0.0
02/02:30pm NE 15 20 - - - - - - - 21.1 1008.7 0.0
02/02:00pm NNE 15 21 - - - - - - - 20.3 1009.0 0.0
02/01:30pm NE 18 22 - - - - - - - 19.5 1009.2 0.0
02/01:00pm NE 20 25 - - - - - - - 19.9 1009.9 0.0
02/12:30pm NE 17 23 - - - - - - - 19.6 1010.4 0.0
02/12:00pm NE 17 22 - - - - - - - 19.6 1011.1 0.0
02/11:30am NE 16 23 - - - - - - - 19.1 1011.4 0.0
02/11:00am NE 19 24 - - - - - - - 18.6 1011.8 0.0
02/10:30am ENE 19 24 - - - - - - - 18.4 1012.2 0.0
02/10:00am NE 19 23 - - - - - - - 18.1 1012.4 0.0
02/09:30am NE 16 20 - - - - - - - 17.9 1013.1 0.0
02/09:00am ENE 14 17 - - - - - - - 18.1 1013.5 1.4
02/08:30am NE 11 16 - - - - - - - 17.7 1013.7 1.4
02/08:00am NE 10 12 - - - - - - - 17.3 1013.7 1.4
02/07:30am ENE 5 6 - - - - - - - 16.8 1013.7 1.4
02/07:00am NE 2 3 - - - - - - - 15.9 1013.7 1.4
02/06:30am SSE 3 3 - - - - - - - 15.2 1013.8 1.4
02/06:00am SSE 1 3 - - - - - - - 13.9 1013.6 1.4
02/05:30am CALM 0 0 - - - - - - - 13.8 1013.6 1.4
02/05:00am CALM 0 0 - - - - - - - 14.1 1013.6 1.4
02/04:30am SSE 2 3 - - - - - - - 14.4 1013.7 1.4
02/04:00am SW 3 4 - - - - - - - 14.7 1013.7 1.4
02/03:30am SW 4 4 - - - - - - - 14.3 1013.8 1.4
02/03:00am SW 3 4 - - - - - - - 13.8 1013.8 1.4
02/02:30am SW 3 4 - - - - - - - 13.8 1013.9 1.4
02/02:00am SW 3 4 - - - - - - - 14.2 1014.0 1.4
02/01:30am SW 3 6 - - - - - - - 14.9 1014.2 1.4
02/01:00am SSW 5 7 - - - - - - - 15.5 1014.4 1.4
02/12:30am S 7 9 - - - - - - - 15.5 1014.5 1.4
02/12:00am S 9 11 - - - - - - - 15.8 1014.8 1.4
 
Date/Time
EDT
Wind Sea
Height
m
Swell Vis
km
Cloud Weather Temp
°C
Press
MSL
hPa
Rain since
9am
mm
Dir  Spd
kts
Gust
kts
Height
m
Period
s
Dir
01/11:30pm S 6 8 - - - - - - - 15.7 1015.0 1.4
01/11:00pm S 10 12 - - - - - - - 15.6 1015.0 1.4
01/10:30pm S 12 15 - - - - - - - 15.9 1015.0 1.4
01/10:00pm S 13 16 - - - - - - - 16.0 1014.7 1.4
01/09:30pm S 11 15 - - - - - - - 16.1 1014.6 1.4
01/09:00pm S 8 10 - - - - - - - 16.5 1014.2 1.4
01/08:30pm S 13 18 - - - - - - - 17.1 1013.8 1.4
01/08:00pm S 14 17 - - - - - - - 17.5 1013.2 1.4
01/07:30pm S 18 21 - - - - - - - 18.1 1012.6 1.4
01/07:00pm SSE 11 15 - - - - - - - 19.5 1012.0 1.4
01/06:30pm S 5 8 - - - - - - - 20.7 1011.7 1.4
01/06:00pm ENE 9 12 - - - - - - - 21.6 1011.2 1.4
01/05:30pm NE 13 17 - - - - - - - 20.4 1010.7 1.4
01/05:00pm NE 16 19 - - - - - - - 21.2 1010.6 1.4
01/04:30pm NE 13 17 - - - - - - - 22.7 1010.6 1.4
01/04:00pm NE 9 12 - - - - - - - 22.6 1011.0 1.4
01/03:30pm WNW 15 24 - - - - - - - 19.9 1011.5 1.2
01/03:25pm N 14 20 - - - - - - - 21.0 1012.5 0.0
01/03:00pm NE 18 22 - - - - - - - 21.0 1010.5 0.0
01/02:30pm NE 18 25 - - - - - - - 21.5 1010.7 0.0
01/02:00pm NE 20 24 - - - - - - - 21.6 1010.9 0.0
01/01:30pm NE 22 27 - - - - - - - 22.1 1011.0 0.0
01/01:00pm NE 20 25 - - - - - - - 21.8 1011.1 0.0
01/12:30pm NE 20 24 - - - - - - - 21.4 1011.4 0.0
01/12:00pm NE 19 22 - - - - - - - 20.8 1011.6 0.0
01/11:30am NE 17 20 - - - - - - - 20.8 1011.9 0.0
01/11:00am NE 17 19 - - - - - - - 20.7 1012.0 0.0
01/10:30am NE 14 17 - - - - - - - 20.1 1012.3 0.0
01/10:00am ENE 12 15 - - - - - - - 19.8 1012.4 0.0
01/09:30am NE 13 15 - - - - - - - 19.8 1012.2 0.0
01/09:00am NE 11 13 - - - - - - - 19.9 1012.4 0.0
01/08:30am NE 11 14 - - - - - - - 18.7 1012.4 0.0
01/08:00am NE 10 12 - - - - - - - 17.9 1012.4 0.0
01/07:30am NE 12 14 - - - - - - - 17.5 1012.1 0.0
01/07:00am NE 11 13 - - - - - - - 17.1 1012.1 0.0
01/06:30am NE 11 13 - - - - - - - 16.1 1012.0 0.0
01/06:00am NE 11 15 - - - - - - - 15.5 1011.7 0.0
01/05:00am NE 12 15 - - - - - - - 14.9 1011.7 0.0
01/04:30am NNE 11 15 - - - - - - - 14.8 1011.6 0.0
01/04:00am NNE 11 14 - - - - - - - 15.0 1011.5 0.0
01/03:30am NE 12 18 - - - - - - - 15.4 1011.6 0.0
01/03:00am NNE 12 16 - - - - - - - 15.5 1011.8 0.0
01/02:30am NE 12 16 - - - - - - - 15.7 1012.0 0.0
01/02:00am NE 13 19 - - - - - - - 15.4 1012.2 0.0
01/01:30am NE 13 17 - - - - - - - 15.5 1012.2 0.0
01/01:00am NE 15 21 - - - - - - - 15.7 1012.2 0.0
01/12:30am NE 16 21 - - - - - - - 15.9 1012.4 0.0
01/12:00am NE 16 22 - - - - - - - 15.9 1012.8 0.0
 
Date/Time
EDT
Wind Sea
Height
m
Swell Vis
km
Cloud Weather Temp
°C
Press
MSL
hPa
Rain since
9am
mm
Dir  Spd
kts
Gust
kts
Height
m
Period
s
Dir
30/11:30pm NE 18 23 - - - - - - - 15.7 1013.1 0.0
30/11:00pm NE 21 27 - - - - - - - 15.8 1013.1 0.0
30/10:30pm NE 22 26 - - - - - - - 16.0 1013.2 0.0
30/10:00pm NE 21 27 - - - - - - - 16.1 1013.2 0.0
30/09:30pm NE 23 31 - - - - - - - 16.1 1012.7 0.0
30/09:00pm ENE 24 30 - - - - - - - 16.2 1012.8 0.0
30/08:30pm NE 25 30 - - - - - - - 16.4 1012.7 0.0
30/08:00pm NE 26 32 - - - - - - - 16.5 1012.6 0.0
30/07:30pm ENE 24 31 - - - - - - - 16.8 1012.5 0.0
30/07:00pm ENE 26 33 - - - - - - - 17.1 1012.4 0.0
30/06:30pm NE 29 35 - - - - - - - 17.4 1012.3 0.0

Other formats

Comma delimited format used in spreadsheet applications
http://www.bom.gov.au/fwo/IDT60701/IDT60701.94951.axf

JavaScript Object Notation format (JSON) in row-major order
http://www.bom.gov.au/fwo/IDT60701/IDT60701.94951.json

Data quality

Most of these data are generated automatically and are frequently updated. Quality checks on data are not normally performed. It is possible for incorrect values to appear. Refer to information at About Latest Weather Observations and please check the disclaimer before using these data.